Time;durP1;ratioP1;P1;durP2;ratioP2;P2;SDS_P1;SDS_P2;PMS_P1;PMS_P2;Temp;Humidity;BMP_temperature;BMP_pressure;BME280_temperature;BME280_humidity;BME280_pressure;Samples;Min_cycle;Max_cycle;Signal;HPM_P1;HPM_P2
2023/10/25 00:01:35;;;;;;;6.78;2.88;;;8.30;99.90;;;;;;4978141;28;20019;-63
2023/10/25 00:04:01;;;;;;;5.63;2.90;;;8.20;99.90;;;;;;4978367;28;20030;-64
2023/10/25 00:06:26;;;;;;;6.28;3.10;;;8.20;99.90;;;;;;4978389;28;20138;-64
2023/10/25 00:08:52;;;;;;;4.28;2.75;;;8.30;99.90;;;;;;4998402;28;20072;-64
2023/10/25 00:11:18;;;;;;;5.35;3.03;;;8.20;99.90;;;;;;4996104;28;20033;-63
2023/10/25 00:13:43;;;;;;;5.65;3.28;;;8.30;99.90;;;;;;4978843;28;20027;-64
2023/10/25 00:16:09;;;;;;;6.40;3.13;;;8.30;99.90;;;;;;4978129;28;20023;-64
2023/10/25 00:18:34;;;;;;;9.02;4.07;;;8.30;99.90;;;;;;4996793;28;20054;-64
2023/10/25 00:21:00;;;;;;;9.80;3.25;;;8.30;99.90;;;;;;4997190;28;20029;-64
2023/10/25 00:23:25;;;;;;;8.80;3.28;;;8.20;99.90;;;;;;4996957;28;20034;-64
2023/10/25 00:25:51;;;;;;;20.27;4.70;;;8.20;99.90;;;;;;4998001;28;20034;-64
2023/10/25 00:28:18;;;;;;;6.88;2.90;;;8.30;99.90;;;;;;4997019;28;20030;-64
2023/10/25 00:30:46;;;;;;;17.02;3.30;;;8.30;99.90;;;;;;4996899;28;20026;-64
2023/10/25 00:33:11;;;;;;;12.73;3.50;;;8.10;99.90;;;;;;4997012;28;20050;-64
2023/10/25 00:35:37;;;;;;;14.75;3.47;;;8.00;99.90;;;;;;4997538;28;20023;-64
2023/10/25 00:38:03;;;;;;;39.83;6.00;;;8.00;99.90;;;;;;4997125;28;20073;-64
2023/10/25 00:40:28;;;;;;;40.83;4.75;;;8.10;99.90;;;;;;4996856;28;20053;-64
2023/10/25 00:43:22;;;;;;;20.65;3.70;;;8.20;99.90;;;;;;4997662;28;20058;-64
2023/10/25 00:46:20;;;;;;;22.83;4.22;;;8.20;99.90;;;;;;4997757;28;20026;-64
2023/10/25 00:48:50;;;;;;;21.45;3.90;;;8.20;99.90;;;;;;4995364;28;20091;-64
2023/10/25 00:51:17;;;;;;;19.58;3.50;;;8.20;99.90;;;;;;4997512;28;20031;-64
2023/10/25 00:53:52;;;;;;;23.42;4.03;;;8.10;99.90;;;;;;4997244;28;20034;-64
2023/10/25 00:56:19;;;;;;;9.57;3.25;;;8.10;99.90;;;;;;4997369;28;20026;-64
2023/10/25 00:58:49;;;;;;;16.55;3.58;;;8.10;99.90;;;;;;4996768;28;20022;-64
2023/10/25 01:01:17;;;;;;;17.60;3.97;;;8.10;99.90;;;;;;4996495;28;20078;-64
2023/10/25 01:03:43;;;;;;;17.20;4.22;;;7.90;99.90;;;;;;4977368;28;20026;-64
2023/10/25 01:06:09;;;;;;;38.80;5.88;;;7.90;99.90;;;;;;4978238;28;20093;-64
2023/10/25 01:08:34;;;;;;;72.63;7.78;;;8.00;99.90;;;;;;4996626;28;20030;-64
2023/10/25 01:11:00;;;;;;;75.53;7.85;;;8.10;99.90;;;;;;4996627;28;20033;-64
2023/10/25 01:13:26;;;;;;;50.25;6.15;;;8.20;99.90;;;;;;4996438;28;20026;-64
2023/10/25 01:15:51;;;;;;;57.75;6.53;;;8.20;99.90;;;;;;4996553;28;20018;-63
2023/10/25 01:18:17;;;;;;;32.03;6.22;;;8.30;99.90;;;;;;4996429;28;20116;-64
2023/10/25 01:20:43;;;;;;;33.00;6.05;;;8.30;99.90;;;;;;4997438;28;20025;-64
2023/10/25 01:23:09;;;;;;;34.45;5.88;;;8.40;99.90;;;;;;4996598;28;20117;-63
2023/10/25 01:25:35;;;;;;;15.32;5.47;;;8.40;99.90;;;;;;4996457;28;20035;-64
2023/10/25 01:28:01;;;;;;;34.90;5.85;;;8.40;99.90;;;;;;4996535;28;20050;-64
2023/10/25 01:30:27;;;;;;;9.80;4.25;;;8.30;99.90;;;;;;4996419;28;20061;-64
2023/10/25 01:32:53;;;;;;;18.38;4.93;;;8.40;99.90;;;;;;4997525;28;20037;-64
2023/10/25 01:35:19;;;;;;;10.55;3.75;;;8.50;99.90;;;;;;4997234;28;20026;-64
2023/10/25 01:37:45;;;;;;;13.63;4.72;;;8.50;99.90;;;;;;4997125;28;20030;-64
2023/10/25 01:40:11;;;;;;;9.07;4.40;;;8.50;99.90;;;;;;4996577;28;20024;-64
2023/10/25 01:42:37;;;;;;;9.32;4.43;;;8.50;99.90;;;;;;4996841;28;20030;-64
2023/10/25 01:45:03;;;;;;;11.63;4.20;;;8.70;99.90;;;;;;4996567;28;20133;-64
2023/10/25 01:47:29;;;;;;;10.43;4.60;;;8.80;99.90;;;;;;4996120;28;20073;-64
2023/10/25 01:49:54;;;;;;;8.52;4.53;;;8.80;99.90;;;;;;4997314;28;20034;-64
2023/10/25 01:52:20;;;;;;;10.00;6.07;;;8.80;99.90;;;;;;4996088;28;20026;-64
2023/10/25 01:54:46;;;;;;;10.48;5.38;;;8.80;99.90;;;;;;4996626;28;20026;-64
2023/10/25 01:57:12;;;;;;;29.58;5.80;;;8.90;99.90;;;;;;4987438;28;20027;-64
2023/10/25 01:59:38;;;;;;;26.27;5.70;;;8.80;99.90;;;;;;4976795;28;20027;-64
2023/10/25 02:02:04;;;;;;;10.15;5.22;;;8.50;99.90;;;;;;4977629;28;20029;-64
2023/10/25 02:04:29;;;;;;;8.73;4.38;;;8.50;99.90;;;;;;4976929;28;20035;-64
2023/10/25 02:06:55;;;;;;;20.02;5.10;;;8.60;99.90;;;;;;4986750;28;20081;-63
2023/10/25 02:09:21;;;;;;;11.75;4.85;;;8.60;99.90;;;;;;4998837;28;20030;-64
2023/10/25 02:11:47;;;;;;;16.20;4.97;;;8.70;99.90;;;;;;5000675;28;20026;-64
2023/10/25 02:14:13;;;;;;;12.40;4.78;;;8.70;99.90;;;;;;4999483;28;20110;-64
2023/10/25 02:16:39;;;;;;;12.07;5.28;;;8.70;99.90;;;;;;5000906;28;20101;-63
2023/10/25 02:19:04;;;;;;;11.82;4.25;;;8.70;99.90;;;;;;5000340;28;20022;-64
2023/10/25 02:21:34;;;;;;;11.48;4.82;;;8.80;99.90;;;;;;4995729;28;20030;-64
2023/10/25 02:24:00;;;;;;;13.90;5.35;;;8.80;99.90;;;;;;4980632;28;20019;-64
2023/10/25 02:26:27;;;;;;;14.05;4.85;;;8.80;99.90;;;;;;4989262;28;20030;-64
2023/10/25 02:28:52;;;;;;;35.58;5.70;;;8.80;99.90;;;;;;4999472;28;20037;-63
2023/10/25 02:31:18;;;;;;;11.10;5.00;;;8.80;99.90;;;;;;4999293;28;20022;-63
2023/10/25 02:33:43;;;;;;;18.73;5.18;;;8.80;99.90;;;;;;4999363;28;20038;-63
2023/10/25 02:36:09;;;;;;;38.45;5.55;;;8.80;99.90;;;;;;4999756;28;20104;-64
2023/10/25 02:38:34;;;;;;;21.05;5.80;;;8.80;99.90;;;;;;4999498;28;20074;-64
2023/10/25 02:41:00;;;;;;;33.92;5.85;;;8.80;99.90;;;;;;4999740;28;20026;-64
2023/10/25 02:43:25;;;;;;;19.08;6.25;;;8.80;99.90;;;;;;4979658;28;20027;-64
2023/10/25 02:45:52;;;;;;;20.77;5.60;;;8.80;99.90;;;;;;4979528;28;20098;-64
2023/10/25 02:48:18;;;;;;;15.95;5.00;;;8.90;99.90;;;;;;4996999;28;20045;-64
2023/10/25 02:50:43;;;;;;;22.27;5.47;;;8.90;99.90;;;;;;4998778;28;20026;-64
2023/10/25 02:53:09;;;;;;;15.57;5.75;;;9.00;99.90;;;;;;5030424;23;20129;-62
2023/10/25 02:55:35;;;;;;;18.25;7.22;;;9.00;99.90;;;;;;5019117;28;20036;-62
2023/10/25 02:58:01;;;;;;;29.80;6.03;;;9.00;99.90;;;;;;5019675;28;20022;-62
2023/10/25 03:00:26;;;;;;;26.17;5.60;;;9.10;99.90;;;;;;5018856;28;20072;-62
2023/10/25 03:02:52;;;;;;;15.13;6.25;;;9.00;99.90;;;;;;5018296;28;20048;-62
2023/10/25 03:05:18;;;;;;;21.23;5.35;;;9.10;99.90;;;;;;5019430;28;20031;-62
2023/10/25 03:07:43;;;;;;;16.17;6.45;;;9.10;99.90;;;;;;5018127;28;20022;-62
2023/10/25 03:10:09;;;;;;;16.38;6.38;;;9.10;99.90;;;;;;5018607;28;20022;-62
2023/10/25 03:12:34;;;;;;;21.77;5.57;;;9.20;99.90;;;;;;5019160;28;20056;-62
2023/10/25 03:15:01;;;;;;;24.23;7.85;;;9.20;99.90;;;;;;5018059;28;20029;-62
2023/10/25 03:17:28;;;;;;;19.90;6.22;;;9.30;99.90;;;;;;5018250;28;20080;-62
2023/10/25 03:19:53;;;;;;;13.30;5.40;;;9.30;99.90;;;;;;5018227;28;20057;-60
2023/10/25 03:22:19;;;;;;;15.10;6.38;;;9.30;99.90;;;;;;5018693;28;20022;-60
2023/10/25 03:24:44;;;;;;;15.65;5.72;;;9.30;99.90;;;;;;5018754;28;20025;-60
2023/10/25 03:27:10;;;;;;;31.05;6.50;;;9.40;99.90;;;;;;5017885;28;20022;-60
2023/10/25 03:29:39;;;;;;;21.95;5.88;;;9.40;99.90;;;;;;5018627;28;20076;-60
2023/10/25 03:32:05;;;;;;;17.58;6.07;;;9.30;99.90;;;;;;5018569;28;20022;-60
2023/10/25 03:34:30;;;;;;;22.10;6.43;;;9.30;99.90;;;;;;5018492;28;20084;-60
2023/10/25 03:36:56;;;;;;;20.67;6.15;;;9.30;99.90;;;;;;5018815;28;20025;-60
2023/10/25 03:39:22;;;;;;;23.42;7.15;;;9.30;99.90;;;;;;5018679;28;20018;-60
2023/10/25 03:41:47;;;;;;;24.30;6.43;;;9.30;99.90;;;;;;5017607;28;20053;-60
2023/10/25 03:44:13;;;;;;;22.02;6.55;;;9.40;99.90;;;;;;5018189;28;20037;-60
2023/10/25 03:46:38;;;;;;;21.27;6.82;;;9.40;99.90;;;;;;5018274;28;20030;-60
2023/10/25 03:49:05;;;;;;;36.58;8.65;;;9.40;99.90;;;;;;5018502;28;20026;-60
2023/10/25 03:51:31;;;;;;;32.35;9.10;;;9.40;99.90;;;;;;5018318;28;20030;-60
2023/10/25 03:53:57;;;;;;;21.95;7.85;;;9.50;99.90;;;;;;5017045;28;20056;-60
2023/10/25 03:56:22;;;;;;;24.70;8.00;;;9.50;99.90;;;;;;5018401;28;20033;-60
2023/10/25 03:58:48;;;;;;;28.98;7.93;;;9.50;99.90;;;;;;5017504;28;20072;-60
2023/10/25 04:01:14;;;;;;;23.35;7.90;;;9.60;99.90;;;;;;5017013;28;20021;-60
2023/10/25 04:03:39;;;;;;;30.80;9.32;;;9.60;99.90;;;;;;5017982;28;20026;-60
2023/10/25 04:06:07;;;;;;;31.08;8.52;;;9.70;99.90;;;;;;5017921;28;20069;-60
2023/10/25 04:08:32;;;;;;;29.30;11.18;;;9.60;99.90;;;;;;5017397;28;20034;-60
2023/10/25 04:10:58;;;;;;;20.20;8.05;;;9.70;99.90;;;;;;5017017;28;20056;-60
2023/10/25 04:13:24;;;;;;;31.88;9.85;;;9.80;99.90;;;;;;5017021;28;20049;-60
2023/10/25 04:15:56;;;;;;;33.65;9.77;;;9.80;99.90;;;;;;5016938;28;20104;-60
2023/10/25 04:18:24;;;;;;;31.92;9.93;;;9.80;99.90;;;;;;5016780;28;20060;-60
2023/10/25 04:20:50;;;;;;;34.25;9.85;;;9.70;99.90;;;;;;5017817;28;20018;-60
2023/10/25 04:23:15;;;;;;;50.45;10.70;;;9.60;99.90;;;;;;5017571;28;20025;-60
2023/10/25 04:25:41;;;;;;;30.52;10.27;;;9.60;99.90;;;;;;5017572;28;20022;-60
2023/10/25 04:28:07;;;;;;;34.72;9.52;;;9.60;99.90;;;;;;5017477;28;20026;-60
2023/10/25 04:30:33;;;;;;;30.08;10.65;;;9.60;99.90;;;;;;5016375;28;20026;-60
2023/10/25 04:32:59;;;;;;;29.20;10.43;;;9.50;99.90;;;;;;5017033;28;20037;-60
2023/10/25 04:35:25;;;;;;;30.42;10.35;;;9.50;99.90;;;;;;5016575;28;20018;-60
2023/10/25 04:37:50;;;;;;;24.98;10.30;;;9.60;99.90;;;;;;5018009;28;20026;-60
2023/10/25 04:40:16;;;;;;;41.17;11.65;;;9.60;99.90;;;;;;5016829;28;20017;-60
2023/10/25 04:42:41;;;;;;;32.55;11.07;;;9.50;99.90;;;;;;5017534;28;20033;-60
2023/10/25 04:45:07;;;;;;;28.83;10.82;;;9.50;99.90;;;;;;5016512;28;20022;-60
2023/10/25 04:47:33;;;;;;;38.35;11.68;;;9.60;99.90;;;;;;5017598;28;20034;-60
2023/10/25 04:50:01;;;;;;;32.85;11.18;;;9.60;99.90;;;;;;5017389;28;20093;-60
2023/10/25 04:52:27;;;;;;;34.45;12.15;;;9.50;99.90;;;;;;5016442;28;20041;-60
2023/10/25 04:54:52;;;;;;;34.55;11.13;;;9.50;99.90;;;;;;5017470;28;20030;-60
2023/10/25 04:57:18;;;;;;;25.05;9.88;;;9.70;99.90;;;;;;5016335;28;20022;-60
2023/10/25 04:59:43;;;;;;;28.85;11.50;;;9.90;99.90;;;;;;5016952;28;20025;-60
2023/10/25 05:02:09;;;;;;;31.00;10.82;;;10.00;99.90;;;;;;5016589;28;20025;-60
2023/10/25 05:04:34;;;;;;;27.65;10.48;;;10.00;99.90;;;;;;5017091;28;20030;-60
2023/10/25 05:07:00;;;;;;;23.33;9.52;;;10.10;99.90;;;;;;5016344;28;20022;-60
2023/10/25 05:09:26;;;;;;;26.00;9.63;;;10.30;99.90;;;;;;5017093;28;20030;-60
2023/10/25 05:11:56;;;;;;;29.15;12.68;;;10.30;99.90;;;;;;5017102;28;20033;-60
2023/10/25 05:14:22;;;;;;;29.63;11.43;;;10.00;99.90;;;;;;5017193;28;20030;-60
2023/10/25 05:16:48;;;;;;;26.25;10.60;;;10.00;99.90;;;;;;5017004;28;20109;-60
2023/10/25 05:19:14;;;;;;;22.27;10.30;;;10.10;99.90;;;;;;5016982;28;20060;-60
2023/10/25 05:21:43;;;;;;;24.90;10.32;;;10.30;99.90;;;;;;5016347;28;20018;-60
2023/10/25 05:24:09;;;;;;;23.17;10.00;;;10.40;99.90;;;;;;5016202;28;20030;-60
2023/10/25 05:26:35;;;;;;;25.13;10.48;;;10.40;99.90;;;;;;5016053;28;20033;-60
2023/10/25 05:29:00;;;;;;;27.02;9.98;;;10.50;99.90;;;;;;5015992;28;20034;-60
2023/10/25 05:31:27;;;;;;;28.77;12.45;;;10.60;99.90;;;;;;5016109;28;20064;-60
2023/10/25 05:33:53;;;;;;;24.00;10.55;;;10.30;99.90;;;;;;5016767;28;20126;-60
2023/10/25 05:36:19;;;;;;;34.03;11.05;;;10.40;99.90;;;;;;5015946;28;20054;-60
2023/10/25 05:38:45;;;;;;;36.00;11.07;;;10.40;99.90;;;;;;5017040;28;20100;-60
2023/10/25 05:41:20;;;;;;;30.35;10.77;;;10.40;99.90;;;;;;5016805;28;20141;-60
2023/10/25 05:44:00;;;;;;;23.88;11.55;;;10.60;99.90;;;;;;5018878;28;20032;-60
2023/10/25 05:46:26;;;;;;;21.17;10.05;;;10.60;99.90;;;;;;5019604;28;20021;-60
2023/10/25 05:48:51;;;;;;;25.58;11.15;;;10.50;99.90;;;;;;5020553;28;20022;-60
2023/10/25 05:51:17;;;;;;;27.25;11.05;;;10.40;99.90;;;;;;5020658;28;20030;-60
2023/10/25 05:53:43;;;;;;;26.77;11.65;;;10.40;99.90;;;;;;5019336;28;20034;-60
2023/10/25 05:56:09;;;;;;;33.75;11.00;;;10.40;99.90;;;;;;5019907;28;20164;-60
2023/10/25 05:58:35;;;;;;;26.08;11.35;;;10.20;99.90;;;;;;5019383;28;20022;-60
2023/10/25 06:01:07;;;;;;;29.83;12.48;;;10.00;99.90;;;;;;5020451;28;20033;-60
2023/10/25 06:03:34;;;;;;;31.55;12.18;;;9.80;99.90;;;;;;5020383;28;20032;-60
2023/10/25 06:06:01;;;;;;;36.72;12.75;;;9.80;99.90;;;;;;5019318;28;20053;-60
2023/10/25 06:08:26;;;;;;;29.20;10.68;;;9.70;99.90;;;;;;5020438;28;20052;-60
2023/10/25 06:10:52;;;;;;;26.83;10.40;;;9.70;99.90;;;;;;5020155;28;20030;-60
2023/10/25 06:13:18;;;;;;;24.08;9.65;;;9.60;99.90;;;;;;5019352;28;20029;-60
2023/10/25 06:15:44;;;;;;;24.42;11.15;;;9.70;99.90;;;;;;5019928;28;20033;-60
2023/10/25 06:18:11;;;;;;;29.05;10.82;;;9.60;99.90;;;;;;5020012;28;20018;-60
2023/10/25 06:20:36;;;;;;;26.00;9.73;;;9.50;99.90;;;;;;5019960;28;20022;-60
2023/10/25 06:23:02;;;;;;;25.60;10.68;;;9.70;99.90;;;;;;5019740;28;20022;-62
2023/10/25 06:25:32;;;;;;;22.35;9.55;;;9.80;99.90;;;;;;5018822;28;20022;-60
2023/10/25 06:27:59;;;;;;;25.30;11.15;;;9.80;99.90;;;;;;5020326;28;20060;-60
2023/10/25 06:30:26;;;;;;;23.40;11.32;;;9.90;99.90;;;;;;5018875;28;20112;-60
2023/10/25 06:32:52;;;;;;;26.00;10.80;;;9.90;99.90;;;;;;5019758;28;20073;-60
2023/10/25 06:35:17;;;;;;;32.65;10.75;;;9.90;99.90;;;;;;5019962;28;20022;-60
2023/10/25 06:37:43;;;;;;;29.17;11.43;;;9.80;99.90;;;;;;5019922;28;20032;-60
2023/10/25 06:40:09;;;;;;;37.95;11.55;;;9.90;99.90;;;;;;5019789;28;20030;-60
2023/10/25 06:42:35;;;;;;;50.72;11.98;;;9.70;99.90;;;;;;5019715;28;20040;-60
2023/10/25 06:45:02;;;;;;;23.02;10.07;;;9.50;99.90;;;;;;5019539;28;20034;-61
2023/10/25 06:47:28;;;;;;;28.15;10.07;;;9.50;99.90;;;;;;5018615;28;20028;-60
2023/10/25 06:49:54;;;;;;;32.65;11.73;;;9.70;99.90;;;;;;5019314;28;20029;-60
2023/10/25 06:52:20;;;;;;;32.00;10.40;;;9.70;99.90;;;;;;5018237;28;20095;-60
2023/10/25 06:54:47;;;;;;;32.40;12.60;;;9.60;99.90;;;;;;5017326;28;20034;-60
2023/10/25 06:57:13;;;;;;;42.85;12.10;;;9.60;99.90;;;;;;5018364;28;20108;-60
2023/10/25 06:59:39;;;;;;;31.95;10.65;;;9.70;99.90;;;;;;5019469;28;20014;-61
2023/10/25 07:02:22;;;;;;;36.15;11.77;;;9.60;99.90;;;;;;5019015;28;20033;-60
2023/10/25 07:04:56;;;;;;;31.73;11.02;;;9.70;99.90;;;;;;5019052;28;20029;-60
2023/10/25 07:07:25;;;;;;;26.13;9.95;;;9.70;99.90;;;;;;5019391;28;20084;-60
2023/10/25 07:09:51;;;;;;;26.83;10.27;;;9.90;99.90;;;;;;5019125;28;20034;-60
2023/10/25 07:12:16;;;;;;;31.63;10.30;;;9.90;99.90;;;;;;5018080;28;20034;-60
2023/10/25 07:14:43;;;;;;;31.02;10.93;;;9.90;99.90;;;;;;5018109;28;20034;-60
2023/10/25 07:17:08;;;;;;;35.55;11.93;;;9.80;99.90;;;;;;5018278;28;20018;-60
2023/10/25 07:19:34;;;;;;;31.02;11.00;;;9.60;99.90;;;;;;5018802;28;20022;-60
2023/10/25 07:21:59;;;;;;;30.17;10.60;;;9.70;99.90;;;;;;5018856;28;20105;-60
2023/10/25 07:24:25;;;;;;;33.40;10.90;;;9.80;99.90;;;;;;5018329;28;20030;-60
2023/10/25 07:26:50;;;;;;;28.55;10.05;;;9.70;99.90;;;;;;5019041;28;20114;-60
2023/10/25 07:29:16;;;;;;;29.35;10.70;;;9.60;99.90;;;;;;5018641;28;20029;-60
2023/10/25 07:31:41;;;;;;;26.15;10.90;;;9.70;99.90;;;;;;5017942;28;20046;-60
2023/10/25 07:34:07;;;;;;;27.48;10.48;;;9.70;99.90;;;;;;5017931;28;20022;-60
2023/10/25 07:36:32;;;;;;;29.40;10.27;;;9.80;99.90;;;;;;5018679;28;20163;-60
2023/10/25 07:38:58;;;;;;;26.13;9.93;;;9.60;99.90;;;;;;5017586;28;20022;-60
2023/10/25 07:41:23;;;;;;;27.38;10.88;;;9.60;99.90;;;;;;5018087;28;20030;-60
2023/10/25 07:43:49;;;;;;;33.13;11.25;;;9.60;99.90;;;;;;5018221;28;20032;-60
2023/10/25 07:46:14;;;;;;;31.33;10.75;;;9.60;99.90;;;;;;5018390;28;20017;-60
2023/10/25 07:48:40;;;;;;;29.65;11.57;;;9.60;99.90;;;;;;5017371;28;20022;-60
2023/10/25 07:51:06;;;;;;;29.13;12.43;;;9.70;99.90;;;;;;5018105;28;20076;-60
2023/10/25 07:53:31;;;;;;;30.25;11.98;;;9.60;99.90;;;;;;5018731;28;20053;-60
2023/10/25 07:56:00;;;;;;;23.00;9.00;;;9.70;99.90;;;;;;5018021;28;20025;-60
2023/10/25 07:58:27;;;;;;;24.83;10.52;;;9.80;99.90;;;;;;5018103;28;20080;-60
2023/10/25 08:00:53;;;;;;;29.15;10.75;;;10.00;99.90;;;;;;5018408;28;20022;-60
2023/10/25 08:03:19;;;;;;;26.02;10.18;;;10.00;99.90;;;;;;5017004;28;20036;-60
2023/10/25 08:05:44;;;;;;;23.95;10.52;;;10.10;99.90;;;;;;5017200;28;20030;-60
2023/10/25 08:08:10;;;;;;;27.80;10.43;;;10.10;99.90;;;;;;5017185;28;20056;-60
2023/10/25 08:10:36;;;;;;;23.08;10.02;;;10.00;99.90;;;;;;5017072;28;20075;-60
2023/10/25 08:13:01;;;;;;;25.20;9.60;;;10.20;99.90;;;;;;5016677;28;20022;-60
2023/10/25 08:15:27;;;;;;;30.77;10.20;;;10.30;99.90;;;;;;5018094;28;20145;-60
2023/10/25 08:17:53;;;;;;;25.23;9.80;;;10.20;99.90;;;;;;5017981;28;20026;-60
2023/10/25 08:20:19;;;;;;;23.35;10.25;;;10.30;99.90;;;;;;5017979;28;20088;-60
2023/10/25 08:22:44;;;;;;;23.63;9.20;;;10.30;99.90;;;;;;5017842;28;20022;-60
2023/10/25 08:25:10;;;;;;;21.00;9.43;;;10.40;99.90;;;;;;5017603;28;20029;-60
2023/10/25 08:27:36;;;;;;;19.98;8.45;;;10.50;99.90;;;;;;5017803;28;20166;-60
2023/10/25 08:30:03;;;;;;;21.27;8.50;;;10.40;99.90;;;;;;5017119;28;20021;-60
2023/10/25 08:32:28;;;;;;;18.70;7.75;;;10.30;99.90;;;;;;5016627;28;20079;-60
2023/10/25 08:34:55;;;;;;;19.60;8.77;;;10.30;99.90;;;;;;5017109;28;20046;-60
2023/10/25 08:37:20;;;;;;;19.10;7.78;;;10.20;99.90;;;;;;5017566;28;20021;-60
2023/10/25 08:39:46;;;;;;;14.98;8.35;;;10.40;99.90;;;;;;5016648;28;20068;-60
2023/10/25 08:42:12;;;;;;;15.70;7.60;;;10.40;99.90;;;;;;5017601;28;20030;-59
2023/10/25 08:44:40;;;;;;;19.00;8.20;;;10.40;99.90;;;;;;5016440;28;20030;-60
2023/10/25 08:47:08;;;;;;;16.60;8.48;;;10.40;99.90;;;;;;5016392;28;20021;-60
2023/10/25 08:49:34;;;;;;;16.88;6.90;;;10.30;99.90;;;;;;5017425;28;20053;-60
2023/10/25 08:52:01;;;;;;;13.85;6.63;;;10.40;99.90;;;;;;5017326;28;20030;-61
2023/10/25 08:54:28;;;;;;;12.07;6.50;;;10.40;99.90;;;;;;5022485;23;20042;-67
2023/10/25 08:56:54;;;;;;;14.77;6.90;;;10.50;99.90;;;;;;4997345;28;20049;-67
2023/10/25 08:59:20;;;;;;;13.68;6.63;;;10.70;99.90;;;;;;4997689;28;20028;-67
2023/10/25 09:01:46;;;;;;;19.13;6.25;;;10.80;99.90;;;;;;4996765;28;20018;-67
2023/10/25 09:04:12;;;;;;;12.45;6.18;;;10.70;99.90;;;;;;4997252;28;20022;-68
2023/10/25 09:06:37;;;;;;;10.57;6.03;;;10.60;99.90;;;;;;4996775;28;20044;-68
2023/10/25 09:09:06;;;;;;;12.10;6.15;;;10.90;99.90;;;;;;4995066;28;20054;-67
2023/10/25 09:11:39;;;;;;;15.23;6.13;;;11.00;99.90;;;;;;4993738;28;20025;-68
2023/10/25 09:14:05;;;;;;;11.65;5.72;;;11.00;99.90;;;;;;4996302;28;20053;-68
2023/10/25 09:16:32;;;;;;;13.45;5.70;;;10.90;99.90;;;;;;4996004;28;20061;-67
2023/10/25 09:19:02;;;;;;;10.55;5.43;;;10.80;99.90;;;;;;4999929;28;20090;-67
2023/10/25 09:21:28;;;;;;;9.07;5.15;;;10.90;99.90;;;;;;5001415;28;20023;-68
2023/10/25 09:24:02;;;;;;;11.43;5.85;;;11.00;99.90;;;;;;5001170;28;20088;-67
2023/10/25 09:26:34;;;;;;;9.50;5.47;;;11.10;99.90;;;;;;5000476;28;20026;-67
2023/10/25 09:29:00;;;;;;;9.85;5.55;;;11.20;99.90;;;;;;5000310;28;20031;-68
2023/10/25 09:31:30;;;;;;;10.50;5.25;;;11.10;99.90;;;;;;5000244;28;20034;-67
2023/10/25 09:34:02;;;;;;;12.63;5.72;;;11.10;99.90;;;;;;5001186;28;20023;-67
2023/10/25 09:36:27;;;;;;;8.40;5.30;;;11.00;99.90;;;;;;5001174;28;20034;-68
2023/10/25 09:38:53;;;;;;;8.55;5.07;;;11.00;99.90;;;;;;5000524;28;20022;-68
2023/10/25 09:41:19;;;;;;;6.68;4.28;;;11.10;99.90;;;;;;5001224;28;20025;-68
2023/10/25 09:43:49;;;;;;;10.90;4.45;;;11.10;99.90;;;;;;5000165;28;20030;-67
2023/10/25 09:46:19;;;;;;;9.55;4.10;;;11.20;99.90;;;;;;5000920;28;20022;-68
2023/10/25 09:49:06;;;;;;;8.35;3.65;;;11.20;99.90;;;;;;5000945;28;20037;-67
2023/10/25 09:52:07;;;;;;;6.15;3.22;;;11.20;99.90;;;;;;5001141;28;20164;-68
2023/10/25 09:54:34;;;;;;;6.40;3.85;;;11.40;99.90;;;;;;5000774;28;20053;-67
2023/10/25 09:57:02;;;;;;;6.65;3.80;;;11.50;99.90;;;;;;5000027;28;20023;-67
2023/10/25 09:59:32;;;;;;;5.95;3.20;;;11.40;99.90;;;;;;5000711;28;20015;-67
2023/10/25 10:02:08;;;;;;;7.57;3.88;;;11.60;99.90;;;;;;5000320;28;20026;-67
2023/10/25 10:04:44;;;;;;;6.20;2.78;;;11.60;99.90;;;;;;4999062;28;20241;-67
2023/10/25 10:07:44;;;;;;;7.00;2.97;;;11.80;99.90;;;;;;4999789;28;20030;-67
2023/10/25 10:10:25;;;;;;;4.10;2.70;;;11.90;99.90;;;;;;4972684;28;20057;-67
2023/10/25 10:12:51;;;;;;;10.73;3.60;;;11.90;99.90;;;;;;5000712;28;20023;-67
2023/10/25 10:15:19;;;;;;;6.95;3.13;;;12.00;99.90;;;;;;5000415;28;20038;-67
2023/10/25 10:17:45;;;;;;;11.40;3.03;;;12.00;99.90;;;;;;5000421;28;20018;-67
2023/10/25 10:20:29;;;;;;;6.00;3.08;;;12.10;99.90;;;;;;5000458;28;20031;-67
2023/10/25 10:23:02;;;;;;;4.95;3.13;;;12.10;99.90;;;;;;5000580;28;20076;-67
2023/10/25 10:25:44;;;;;;;7.55;3.17;;;11.90;99.90;;;;;;4999457;28;20029;-66
2023/10/25 10:28:09;;;;;;;6.30;3.50;;;11.80;99.90;;;;;;5000290;28;20020;-67
2023/10/25 10:30:39;;;;;;;4.82;3.05;;;11.80;99.90;;;;;;4998957;28;20026;-67
2023/10/25 10:33:11;;;;;;;4.75;2.60;;;11.80;99.90;;;;;;4999154;28;20018;-67
2023/10/25 10:35:47;;;;;;;4.15;2.63;;;12.00;99.90;;;;;;5000001;28;20105;-66
2023/10/25 10:38:12;;;;;;;7.15;2.88;;;11.90;99.90;;;;;;5000188;28;20076;-66
2023/10/25 10:40:38;;;;;;;6.15;2.30;;;11.80;99.90;;;;;;5000035;28;20109;-66
2023/10/25 10:43:06;;;;;;;5.63;2.42;;;11.80;99.90;;;;;;4998998;28;20018;-65
2023/10/25 10:45:32;;;;;;;5.32;2.40;;;11.80;99.90;;;;;;5000009;28;20027;-66
2023/10/25 10:48:18;;;;;;;4.28;2.00;;;11.80;99.90;;;;;;4999933;28;20022;-65
2023/10/25 10:50:44;;;;;;;5.18;1.80;;;11.70;99.90;;;;;;5000151;28;20027;-65
2023/10/25 10:53:09;;;;;;;1.92;1.52;;;11.70;99.90;;;;;;4999527;28;20038;-65
2023/10/25 10:55:35;;;;;;;3.75;1.98;;;11.80;99.90;;;;;;4999786;28;20022;-65
2023/10/25 10:58:02;;;;;;;4.32;1.80;;;11.70;99.90;;;;;;4999779;28;20030;-65
2023/10/25 11:00:28;;;;;;;6.70;1.85;;;11.70;99.90;;;;;;4999703;28;20021;-65
2023/10/25 11:02:54;;;;;;;2.30;1.80;;;11.70;99.90;;;;;;4999577;28;20027;-65
2023/10/25 11:05:22;;;;;;;5.05;1.90;;;11.60;99.90;;;;;;4998930;28;20076;-65
2023/10/25 11:07:48;;;;;;;1.70;1.50;;;11.60;99.90;;;;;;4998719;28;20023;-65
2023/10/25 11:10:14;;;;;;;5.40;1.70;;;11.60;99.90;;;;;;4999333;28;20034;-65
2023/10/25 11:12:41;;;;;;;4.10;1.85;;;11.70;99.90;;;;;;4998358;28;20022;-65
2023/10/25 11:15:07;;;;;;;2.95;1.98;;;11.70;99.90;;;;;;4998774;28;20034;-65
2023/10/25 11:17:34;;;;;;;4.75;2.30;;;11.70;99.90;;;;;;4998326;28;20030;-65
2023/10/25 11:20:00;;;;;;;6.20;2.88;;;11.70;99.90;;;;;;4999533;28;20029;-65
2023/10/25 11:22:26;;;;;;;5.90;2.83;;;11.60;99.90;;;;;;4998285;28;20113;-65
2023/10/25 11:24:53;;;;;;;4.90;2.90;;;11.50;99.90;;;;;;4998272;28;20105;-65
2023/10/25 11:27:18;;;;;;;4.50;3.10;;;11.50;99.90;;;;;;4999150;28;20018;-65
2023/10/25 11:29:48;;;;;;;6.85;3.50;;;11.40;99.90;;;;;;4998451;28;20056;-65
2023/10/25 11:32:14;;;;;;;6.47;3.05;;;11.40;99.90;;;;;;4999330;28;20022;-65
2023/10/25 11:34:42;;;;;;;5.20;3.00;;;11.40;99.90;;;;;;4999211;28;20085;-65
2023/10/25 11:37:08;;;;;;;7.75;3.42;;;11.30;99.90;;;;;;4998711;28;20018;-65
2023/10/25 11:40:01;;;;;;;5.20;3.17;;;11.30;99.90;;;;;;4998046;28;20026;-65
2023/10/25 11:42:29;;;;;;;6.65;3.00;;;11.30;99.90;;;;;;4998778;28;20022;-65
2023/10/25 11:44:55;;;;;;;7.28;3.50;;;11.20;99.90;;;;;;4998848;28;20054;-65
2023/10/25 11:47:21;;;;;;;5.82;2.70;;;11.20;99.90;;;;;;4998780;28;20037;-65
2023/10/25 11:49:55;;;;;;;7.22;3.17;;;11.30;99.90;;;;;;4998930;28;20062;-65
2023/10/25 11:52:22;;;;;;;4.30;3.25;;;11.30;99.90;;;;;;4998791;28;20065;-65
2023/10/25 11:54:49;;;;;;;4.93;2.83;;;11.30;99.90;;;;;;4998827;28;20027;-65
2023/10/25 11:57:15;;;;;;;12.23;4.30;;;11.20;99.90;;;;;;4997645;28;20022;-65
2023/10/25 11:59:40;;;;;;;7.53;4.20;;;11.20;99.90;;;;;;4997815;28;20160;-65
2023/10/25 12:02:06;;;;;;;12.25;4.65;;;11.10;99.90;;;;;;4997597;28;20022;-65
2023/10/25 12:04:31;;;;;;;12.05;4.93;;;11.20;99.90;;;;;;4998572;28;20030;-65
2023/10/25 12:06:57;;;;;;;9.10;4.70;;;11.20;99.90;;;;;;4997455;28;20022;-65
2023/10/25 12:09:22;;;;;;;7.47;4.45;;;11.20;99.90;;;;;;4998657;28;20037;-65
2023/10/25 12:11:48;;;;;;;9.57;4.78;;;11.20;99.90;;;;;;4997837;28;20030;-65
2023/10/25 12:14:14;;;;;;;11.00;4.72;;;11.10;99.90;;;;;;4998092;28;20054;-65
2023/10/25 12:16:39;;;;;;;9.00;5.10;;;11.10;99.90;;;;;;4998445;28;20105;-65
2023/10/25 12:19:05;;;;;;;17.45;6.00;;;11.00;99.90;;;;;;4998064;28;20050;-65
2023/10/25 12:21:32;;;;;;;8.15;4.57;;;11.10;99.90;;;;;;4998331;28;20030;-65
2023/10/25 12:23:57;;;;;;;10.43;5.68;;;11.00;99.90;;;;;;4998064;28;20033;-65
2023/10/25 12:26:23;;;;;;;15.25;5.90;;;11.00;99.90;;;;;;4997126;28;20027;-65
2023/10/25 12:28:48;;;;;;;17.10;6.82;;;10.90;99.90;;;;;;4997225;28;20057;-65
2023/10/25 12:31:14;;;;;;;12.52;5.75;;;10.90;99.90;;;;;;4998336;28;20038;-65
2023/10/25 12:33:39;;;;;;;13.20;5.60;;;11.00;99.90;;;;;;4997382;28;20026;-65
2023/10/25 12:36:05;;;;;;;12.57;6.22;;;11.00;99.90;;;;;;4998219;28;20046;-64
2023/10/25 12:38:31;;;;;;;13.88;6.80;;;10.90;99.90;;;;;;4997002;28;20023;-65
2023/10/25 12:40:56;;;;;;;15.40;6.57;;;11.00;99.90;;;;;;4997917;28;20105;-65
2023/10/25 12:43:22;;;;;;;14.63;6.30;;;11.00;99.90;;;;;;4997109;28;20022;-65